createdAt,value
2022-10-16T00:01:51.559Z,100698.13
2022-10-16T00:04:15.408Z,100705.31
2022-10-16T00:06:40.771Z,100702.25
2022-10-16T00:09:04.597Z,100706.84
2022-10-16T00:11:30.705Z,100698.72
2022-10-16T00:13:58.106Z,100707.88
2022-10-16T00:16:22.414Z,100715.66
2022-10-16T00:18:46.000Z,100722.75
2022-10-16T00:21:11.994Z,100720.47
2022-10-16T00:23:37.559Z,100716.38
2022-10-16T00:26:03.692Z,100720.47
2022-10-16T00:28:27.691Z,100723.22
2022-10-16T00:30:51.331Z,100729.25
2022-10-16T00:33:14.887Z,100734.41
2022-10-16T00:35:38.490Z,100740.38
2022-10-16T00:38:02.003Z,100741.19
2022-10-16T00:40:27.040Z,100740.38
2022-10-16T00:42:50.593Z,100729.53
2022-10-16T00:45:14.402Z,100725.13
2022-10-16T00:47:41.470Z,100719.69
2022-10-16T00:50:11.055Z,100726.75
2022-10-16T00:52:35.469Z,100729.28
2022-10-16T00:55:00.070Z,100734.25
2022-10-16T00:57:25.330Z,100738.81
2022-10-16T00:59:49.011Z,100746.84
2022-10-16T01:02:16.159Z,100745.78
2022-10-16T01:04:44.852Z,100748.53
2022-10-16T01:07:16.768Z,100746.47
2022-10-16T01:09:52.046Z,100753.06
2022-10-16T01:12:25.933Z,100753.66
2022-10-16T01:14:56.710Z,100752.47
2022-10-16T01:17:25.559Z,100747.72
2022-10-16T01:20:13.529Z,100762.06
2022-10-16T01:22:48.325Z,100754.47
2022-10-16T01:25:19.733Z,100753.97
2022-10-16T01:27:48.194Z,100759.91
2022-10-16T01:30:18.973Z,100762.09
2022-10-16T01:32:45.624Z,100762.75
2022-10-16T01:35:17.107Z,100769.59
2022-10-16T01:37:50.107Z,100763.34
2022-10-16T01:40:18.539Z,100770.31
2022-10-16T01:42:50.407Z,100779.25
2022-10-16T01:45:19.191Z,100783.81
2022-10-16T01:47:44.786Z,100775.00
2022-10-16T01:50:10.642Z,100775.34
2022-10-16T01:52:37.430Z,100766.56
2022-10-16T01:55:03.545Z,100754.38
2022-10-16T01:57:28.496Z,100764.88
2022-10-16T01:59:58.623Z,100769.28
2022-10-16T02:02:25.121Z,100776.06
2022-10-16T02:04:53.279Z,100779.06
2022-10-16T02:07:17.388Z,100793.59
2022-10-16T02:09:41.874Z,100797.25
2022-10-16T02:12:14.487Z,100791.63
2022-10-16T02:14:41.246Z,100793.25
2022-10-16T02:17:15.327Z,100804.88
2022-10-16T02:22:11.123Z,100807.94
2022-10-16T02:24:41.536Z,100807.84
2022-10-16T02:27:12.671Z,100804.31
2022-10-16T02:29:45.478Z,100811.44
2022-10-16T02:32:12.807Z,100808.16
2022-10-16T02:34:37.606Z,100809.75
2022-10-16T02:37:04.531Z,100825.69
2022-10-16T02:39:29.710Z,100822.16
2022-10-16T02:41:53.324Z,100815.53
2022-10-16T02:44:16.887Z,100810.56
2022-10-16T02:46:40.526Z,100810.25
2022-10-16T02:49:05.676Z,100823.84
2022-10-16T02:51:29.283Z,100823.88
2022-10-16T02:53:52.871Z,100816.50
2022-10-16T02:56:16.577Z,100819.09
2022-10-16T02:58:40.206Z,100824.38
2022-10-16T03:01:03.974Z,100819.47
2022-10-16T03:03:27.555Z,100818.00
2022-10-16T03:05:53.248Z,100817.19
2022-10-16T03:08:17.325Z,100816.66
2022-10-16T03:10:40.935Z,100826.25
2022-10-16T03:13:04.542Z,100826.44
2022-10-16T03:15:29.253Z,100837.59
2022-10-16T03:17:52.754Z,100837.78
2022-10-16T03:20:16.678Z,100835.09
2022-10-16T03:22:41.635Z,100842.22
2022-10-16T03:25:06.030Z,100851.63
2022-10-16T03:27:29.822Z,100841.81
2022-10-16T03:29:53.858Z,100852.84
2022-10-16T03:32:17.410Z,100839.00
2022-10-16T03:34:40.967Z,100837.81
2022-10-16T03:37:04.855Z,100849.59
2022-10-16T03:39:29.835Z,100852.59
2022-10-16T03:41:53.340Z,100860.94
2022-10-16T03:44:17.191Z,100861.22
2022-10-16T03:46:40.875Z,100865.38
2022-10-16T03:49:06.180Z,100864.41
2022-10-16T03:51:32.543Z,100883.00
2022-10-16T03:53:56.183Z,100888.59
2022-10-16T03:56:21.105Z,100888.00
2022-10-16T03:58:44.722Z,100883.22
2022-10-16T04:01:08.525Z,100885.47
2022-10-16T04:03:32.256Z,100881.50
2022-10-16T04:05:55.819Z,100883.91
2022-10-16T04:08:19.401Z,100878.66
2022-10-16T04:10:44.775Z,100896.31
2022-10-16T04:13:09.761Z,100896.47
2022-10-16T04:15:33.308Z,100897.41
2022-10-16T04:17:56.904Z,100896.88
2022-10-16T04:20:20.830Z,100892.31
2022-10-16T04:22:44.376Z,100890.59
2022-10-16T04:25:08.706Z,100892.22
2022-10-16T04:27:32.329Z,100888.22
2022-10-16T04:29:57.224Z,100897.97
2022-10-16T04:32:20.831Z,100893.81
2022-10-16T04:34:44.321Z,100885.91
2022-10-16T04:37:08.028Z,100886.06
2022-10-16T04:39:31.560Z,100894.50
2022-10-16T04:41:55.179Z,100892.13
2022-10-16T04:44:18.706Z,100881.97
2022-10-16T04:46:43.870Z,100869.28
2022-10-16T04:49:07.569Z,100872.75
2022-10-16T04:51:31.174Z,100881.69
2022-10-16T04:53:55.320Z,100883.59
2022-10-16T04:56:18.894Z,100885.63
2022-10-16T04:58:42.391Z,100886.22
2022-10-16T05:01:06.372Z,100894.06
2022-10-16T05:05:59.695Z,100895.03
2022-10-16T05:08:23.321Z,100906.69
2022-10-16T05:10:47.884Z,100908.09
2022-10-16T05:13:11.686Z,100910.47
2022-10-16T05:15:35.245Z,100906.94
2022-10-16T05:17:58.811Z,100919.22
2022-10-16T05:20:24.783Z,100911.56
2022-10-16T05:22:48.367Z,100925.78
2022-10-16T05:25:11.941Z,100914.97
2022-10-16T05:27:35.471Z,100917.28
2022-10-16T05:29:59.034Z,100917.75
2022-10-16T05:32:22.540Z,100918.59
2022-10-16T05:34:46.711Z,100918.66
2022-10-16T05:37:12.566Z,100916.78
2022-10-16T05:39:37.880Z,100933.00
2022-10-16T05:42:01.542Z,100949.50
2022-10-16T05:44:25.182Z,100947.09
2022-10-16T05:46:49.035Z,100942.09
2022-10-16T05:49:12.619Z,100944.09
2022-10-16T05:51:36.178Z,100947.81
2022-10-16T05:54:01.098Z,100947.09
2022-10-16T05:56:24.660Z,100941.22
2022-10-16T05:58:48.271Z,100935.13
2022-10-16T06:01:14.680Z,100942.72
2022-10-16T06:03:38.470Z,100943.03
2022-10-16T06:06:12.196Z,100941.88
2022-10-16T06:08:36.171Z,100948.28
2022-10-16T06:11:09.266Z,100951.50
2022-10-16T06:13:32.898Z,100950.50
2022-10-16T06:15:59.539Z,100957.31
2022-10-16T06:18:23.091Z,100953.88
2022-10-16T06:20:46.697Z,100954.84
2022-10-16T06:23:10.304Z,100951.97
2022-10-16T06:25:34.148Z,100967.91
2022-10-16T06:27:59.187Z,100955.50
2022-10-16T06:30:22.717Z,100968.28
2022-10-16T06:32:46.461Z,100968.44
2022-10-16T06:35:10.656Z,100976.63
2022-10-16T06:37:34.251Z,100979.09
2022-10-16T06:39:57.849Z,100980.34
2022-10-16T06:42:21.764Z,100986.38
2022-10-16T06:44:46.748Z,100994.41
2022-10-16T06:47:10.375Z,100996.50
2022-10-16T06:49:33.951Z,101004.34
2022-10-16T06:51:57.554Z,100998.09
2022-10-16T06:54:21.072Z,100995.88
2022-10-16T06:56:44.707Z,101001.06
2022-10-16T06:59:08.271Z,101000.72
2022-10-16T07:01:33.618Z,101009.91
2022-10-16T07:03:57.801Z,101016.88
2022-10-16T07:06:23.810Z,101014.25
2022-10-16T07:08:49.073Z,101026.66
2022-10-16T07:11:14.916Z,101031.59
2022-10-16T07:13:39.395Z,101034.34
2022-10-16T07:16:07.903Z,101034.66
2022-10-16T07:18:33.527Z,101038.53
2022-10-16T07:21:06.827Z,101023.50
2022-10-16T07:23:30.371Z,101021.38
2022-10-16T07:25:57.144Z,101014.31
2022-10-16T07:28:20.727Z,101022.34
2022-10-16T07:30:44.331Z,101022.00
2022-10-16T07:33:07.926Z,101025.13
2022-10-16T07:35:33.248Z,101015.16
2022-10-16T07:37:56.945Z,101022.19
2022-10-16T07:40:20.610Z,101026.03
2022-10-16T07:42:44.648Z,101037.44
2022-10-16T07:45:09.551Z,101031.00
2022-10-16T07:47:33.290Z,101033.22
2022-10-16T07:49:56.926Z,101030.50
2022-10-16T07:52:22.158Z,101028.19
2022-10-16T07:54:45.854Z,101025.50
2022-10-16T07:57:09.631Z,101032.44
2022-10-16T07:59:33.152Z,101049.44
2022-10-16T08:01:56.738Z,101060.63
2022-10-16T08:04:21.147Z,101059.16
2022-10-16T08:06:44.744Z,101063.00
2022-10-16T08:09:10.811Z,101077.88
2022-10-16T08:11:34.655Z,101081.59
2022-10-16T08:13:58.216Z,101071.03
2022-10-16T08:16:21.970Z,101063.31
2022-10-16T08:18:45.478Z,101064.81
2022-10-16T08:21:18.473Z,101048.47
2022-10-16T08:23:45.258Z,101062.88
2022-10-16T08:26:11.114Z,101069.66
2022-10-16T08:28:34.889Z,101073.31
2022-10-16T08:30:58.717Z,101073.25
2022-10-16T08:33:22.293Z,101078.09
2022-10-16T08:35:53.476Z,101076.56
2022-10-16T08:38:17.305Z,101079.16
2022-10-16T08:40:40.979Z,101079.88
2022-10-16T08:43:27.382Z,101083.34
2022-10-16T08:46:17.853Z,101082.53
2022-10-16T08:48:48.750Z,101077.91
2022-10-16T08:51:24.791Z,101077.41
2022-10-16T08:53:54.594Z,101083.34
2022-10-16T08:56:19.704Z,101075.38
2022-10-16T08:58:44.981Z,101089.47
2022-10-16T09:01:16.690Z,101089.19
2022-10-16T09:04:12.621Z,101098.66
2022-10-16T09:06:47.975Z,101096.66
2022-10-16T09:09:36.119Z,101102.28
2022-10-16T09:12:07.858Z,101104.16
2022-10-16T09:14:47.033Z,101108.06
2022-10-16T09:17:29.590Z,101102.25
2022-10-16T09:19:58.858Z,101108.03
2022-10-16T09:22:29.447Z,101110.41
2022-10-16T09:24:53.043Z,101111.41
2022-10-16T09:27:17.207Z,101108.53
2022-10-16T09:29:43.120Z,101114.50
2022-10-16T09:32:17.039Z,101107.19
2022-10-16T09:34:47.723Z,101110.41
2022-10-16T09:37:16.035Z,101103.56
2022-10-16T09:39:47.451Z,101105.78
2022-10-16T09:42:15.754Z,101118.56
2022-10-16T09:47:19.366Z,101128.56
2022-10-16T09:49:54.307Z,101128.09
2022-10-16T09:52:18.344Z,101134.97
2022-10-16T09:54:53.295Z,101133.50
2022-10-16T09:57:17.103Z,101141.16
2022-10-16T09:59:51.066Z,101139.66
2022-10-16T10:02:18.003Z,101143.69
2022-10-16T10:04:46.612Z,101145.06
2022-10-16T10:07:20.885Z,101142.66
2022-10-16T10:09:47.798Z,101143.38
2022-10-16T10:12:24.437Z,101138.63
2022-10-16T10:14:54.151Z,101140.66
2022-10-16T10:17:21.297Z,101151.94
2022-10-16T10:19:53.687Z,101153.81
2022-10-16T10:22:41.919Z,101152.25
2022-10-16T10:25:44.395Z,101153.84
2022-10-16T10:28:30.616Z,101161.25
2022-10-16T10:31:03.789Z,101167.03
2022-10-16T10:33:38.830Z,101175.06
2022-10-16T10:36:17.341Z,101174.16
2022-10-16T10:38:49.978Z,101175.09
2022-10-16T10:42:12.594Z,101185.03
2022-10-16T10:45:14.056Z,101177.47
2022-10-16T10:47:49.989Z,101167.94
2022-10-16T10:50:24.155Z,101179.66
2022-10-16T10:53:02.115Z,101168.66
2022-10-16T10:55:36.030Z,101172.28
2022-10-16T10:58:17.714Z,101181.31
2022-10-16T11:00:53.344Z,101174.59
2022-10-16T11:03:37.519Z,101177.56
2022-10-16T11:06:07.807Z,101181.13
2022-10-16T11:08:38.358Z,101183.72
2022-10-16T11:11:07.142Z,101176.34
2022-10-16T11:13:36.395Z,101175.13
2022-10-16T11:16:04.334Z,101178.31
2022-10-16T11:18:45.006Z,101175.84
2022-10-16T11:21:12.910Z,101184.19
2022-10-16T11:23:44.855Z,101183.25
2022-10-16T11:26:17.606Z,101182.75
2022-10-16T11:28:48.374Z,101178.09
2022-10-16T11:31:18.451Z,101172.66
2022-10-16T11:33:48.654Z,101166.13
2022-10-16T11:36:18.974Z,101165.06
2022-10-16T11:38:51.370Z,101173.19
2022-10-16T11:41:24.779Z,101176.31
2022-10-16T11:43:59.284Z,101184.53
2022-10-16T11:46:27.112Z,101178.69
2022-10-16T11:48:57.844Z,101183.84
2022-10-16T11:51:29.591Z,101179.94
2022-10-16T11:54:00.899Z,101173.88
2022-10-16T11:56:24.833Z,101180.31
2022-10-16T11:58:58.648Z,101176.66
2022-10-16T12:01:29.590Z,101180.81
2022-10-16T12:04:17.299Z,101180.56
2022-10-16T12:06:45.972Z,101188.72
2022-10-16T12:09:18.721Z,101190.59
2022-10-16T12:11:42.312Z,101203.44
2022-10-16T12:15:14.834Z,101205.41
2022-10-16T12:17:29.392Z,101211.50
2022-10-16T12:20:03.306Z,101204.69
2022-10-16T12:22:29.862Z,101208.78
2022-10-16T12:24:54.147Z,101207.56
2022-10-16T12:27:30.320Z,101204.41
2022-10-16T12:29:59.100Z,101205.84
2022-10-16T12:32:47.855Z,101209.31
2022-10-16T12:35:24.238Z,101216.41
2022-10-16T12:37:48.151Z,101213.41
2022-10-16T12:40:18.316Z,101218.16
2022-10-16T12:42:42.134Z,101224.25
2022-10-16T12:45:27.150Z,101222.56
2022-10-16T12:47:53.399Z,101218.56
2022-10-16T12:50:34.009Z,101224.75
2022-10-16T12:52:57.690Z,101223.47
2022-10-16T12:55:23.888Z,101227.06
2022-10-16T12:58:10.882Z,101230.69
2022-10-16T13:00:46.455Z,101234.03
2022-10-16T13:04:11.135Z,101228.84
2022-10-16T13:06:48.074Z,101238.81
2022-10-16T13:09:39.798Z,101247.72
2022-10-16T13:12:52.404Z,101252.03
2022-10-16T13:15:37.763Z,101251.41
2022-10-16T13:18:09.224Z,101254.97
2022-10-16T13:20:38.692Z,101261.88
2022-10-16T13:23:16.781Z,101265.66
2022-10-16T13:25:56.328Z,101276.81
2022-10-16T13:28:30.543Z,101271.47
2022-10-16T13:30:56.087Z,101267.75
2022-10-16T13:33:25.951Z,101269.59
2022-10-16T13:35:53.238Z,101283.63
2022-10-16T13:38:20.976Z,101274.88
2022-10-16T13:40:54.199Z,101265.78
2022-10-16T13:43:19.360Z,101274.78
2022-10-16T13:45:42.891Z,101268.66
2022-10-16T13:48:08.784Z,101269.53
2022-10-16T13:50:32.347Z,101265.16
2022-10-16T13:53:07.120Z,101259.44
2022-10-16T13:55:33.459Z,101259.03
2022-10-16T13:58:07.939Z,101264.63
2022-10-16T14:00:32.880Z,101283.06
2022-10-16T14:03:03.438Z,101269.84
2022-10-16T14:05:27.219Z,101277.13
2022-10-16T14:07:52.981Z,101272.75
2022-10-16T14:10:25.887Z,101283.50
2022-10-16T14:12:58.530Z,101281.59
2022-10-16T14:15:22.396Z,101292.66
2022-10-16T14:17:51.848Z,101288.66
2022-10-16T14:20:17.738Z,101289.94
2022-10-16T14:22:43.339Z,101290.97
2022-10-16T14:25:33.019Z,101290.53
2022-10-16T14:28:04.738Z,101302.81
2022-10-16T14:30:29.103Z,101292.72
2022-10-16T14:32:58.184Z,101298.34
2022-10-16T14:35:29.556Z,101297.81
2022-10-16T14:37:55.724Z,101303.41
2022-10-16T14:40:20.438Z,101299.06
2022-10-16T14:42:46.522Z,101306.06
2022-10-16T14:45:12.952Z,101309.13
2022-10-16T14:47:37.156Z,101315.13
2022-10-16T14:50:00.750Z,101323.75
2022-10-16T14:52:24.615Z,101319.84
2022-10-16T14:54:51.025Z,101316.00
2022-10-16T14:57:21.284Z,101320.84
2022-10-16T14:59:46.143Z,101321.91
2022-10-16T15:02:25.077Z,101332.97
2022-10-16T15:04:49.425Z,101325.47
2022-10-16T15:07:13.023Z,101330.19
2022-10-16T15:09:36.700Z,101331.34
2022-10-16T15:12:00.203Z,101329.50
2022-10-16T15:14:23.751Z,101330.03
2022-10-16T15:16:47.473Z,101335.31
2022-10-16T15:19:12.489Z,101333.63
2022-10-16T15:21:36.068Z,101342.44
2022-10-16T15:24:01.420Z,101341.13
2022-10-16T15:26:25.666Z,101341.94
2022-10-16T15:28:49.296Z,101352.53
2022-10-16T15:31:12.911Z,101352.00
2022-10-16T15:33:39.680Z,101367.84
2022-10-16T15:36:06.018Z,101359.00
2022-10-16T15:38:31.020Z,101366.47
2022-10-16T15:40:54.595Z,101372.47
2022-10-16T15:43:18.703Z,101372.47
2022-10-16T15:45:42.303Z,101378.59
2022-10-16T15:48:06.398Z,101383.00
2022-10-16T15:50:30.133Z,101388.09
2022-10-16T15:52:55.116Z,101399.50
2022-10-16T15:55:19.737Z,101399.97
2022-10-16T15:57:44.228Z,101401.50
2022-10-16T16:00:10.794Z,101405.94
2022-10-16T16:02:37.799Z,101409.75
2022-10-16T16:05:01.383Z,101415.97
2022-10-16T16:07:25.080Z,101410.63
2022-10-16T16:09:50.080Z,101413.44
2022-10-16T16:12:13.757Z,101414.59
2022-10-16T16:14:37.463Z,101415.19
2022-10-16T16:17:02.392Z,101423.84
2022-10-16T16:19:26.146Z,101434.59
2022-10-16T16:21:50.182Z,101428.38
2022-10-16T16:24:13.704Z,101437.31
2022-10-16T16:26:40.937Z,101444.69
2022-10-16T16:29:05.898Z,101442.38
2022-10-16T16:31:32.103Z,101450.44
2022-10-16T16:33:56.967Z,101446.19
2022-10-16T16:36:21.093Z,101453.63
2022-10-16T16:38:44.688Z,101460.38
2022-10-16T16:41:15.548Z,101464.59
2022-10-16T16:43:40.562Z,101460.78
2022-10-16T16:46:04.806Z,101466.09
2022-10-16T16:48:28.405Z,101476.41
2022-10-16T16:50:51.948Z,101484.16
2022-10-16T16:53:15.586Z,101495.88
2022-10-16T16:55:39.136Z,101495.91
2022-10-16T16:58:03.970Z,101503.91
2022-10-16T17:00:28.974Z,101503.50
2022-10-16T17:02:53.150Z,101504.66
2022-10-16T17:05:16.950Z,101516.09
2022-10-16T17:07:41.836Z,101512.66
2022-10-16T17:10:06.519Z,101518.03
2022-10-16T17:12:31.792Z,101519.59
2022-10-16T17:14:55.299Z,101532.72
2022-10-16T17:17:20.794Z,101533.44
2022-10-16T17:19:44.542Z,101537.94
2022-10-16T17:22:08.265Z,101532.50
2022-10-16T17:24:31.781Z,101541.59
2022-10-16T17:26:55.417Z,101544.13
2022-10-16T17:29:19.727Z,101541.56
2022-10-16T17:31:43.416Z,101556.16
2022-10-16T17:34:11.795Z,101559.88
2022-10-16T17:36:37.918Z,101560.41
2022-10-16T17:39:04.401Z,101563.66
2022-10-16T17:41:28.099Z,101567.44
2022-10-16T17:43:52.650Z,101568.97
2022-10-16T17:46:18.775Z,101577.75
2022-10-16T17:48:45.520Z,101577.41
2022-10-16T17:51:12.866Z,101575.97
2022-10-16T17:53:37.413Z,101574.19
2022-10-16T17:56:05.564Z,101572.75
2022-10-16T18:00:57.588Z,101572.00
2022-10-16T18:03:21.322Z,101570.56
2022-10-16T18:05:44.887Z,101580.91
2022-10-16T18:08:09.858Z,101589.41
2022-10-16T18:10:33.562Z,101588.31
2022-10-16T18:12:57.132Z,101591.53
2022-10-16T18:15:20.745Z,101592.66
2022-10-16T18:17:44.947Z,101585.06
2022-10-16T18:20:10.797Z,101592.06
2022-10-16T18:22:35.910Z,101605.19
2022-10-16T18:25:04.341Z,101602.03
2022-10-16T18:27:28.065Z,101601.28
2022-10-16T18:29:56.450Z,101594.19
2022-10-16T18:32:19.993Z,101599.50
2022-10-16T18:34:43.583Z,101606.72
2022-10-16T18:37:07.322Z,101616.53
2022-10-16T18:39:30.878Z,101621.09
2022-10-16T18:41:59.789Z,101623.91
2022-10-16T18:44:23.595Z,101630.16
2022-10-16T18:46:47.093Z,101630.91
2022-10-16T18:49:11.200Z,101631.38
2022-10-16T18:51:37.072Z,101639.88
2022-10-16T18:54:03.227Z,101645.28
2022-10-16T18:56:29.214Z,101647.44
2022-10-16T18:58:54.882Z,101647.19
2022-10-16T19:01:21.730Z,101631.16
2022-10-16T19:03:45.471Z,101614.81
2022-10-16T19:06:11.186Z,101616.81
2022-10-16T19:08:34.801Z,101630.16
2022-10-16T19:10:58.322Z,101642.63
2022-10-16T19:13:22.602Z,101663.03
2022-10-16T19:15:57.957Z,101666.56
2022-10-16T19:18:26.021Z,101657.63
2022-10-16T19:20:50.587Z,101665.09
2022-10-16T19:23:14.224Z,101664.84
2022-10-16T19:25:40.084Z,101660.50
2022-10-16T19:28:07.469Z,101666.78
2022-10-16T19:30:31.059Z,101663.56
2022-10-16T19:32:56.076Z,101659.75
2022-10-16T19:35:19.687Z,101658.88
2022-10-16T19:37:43.720Z,101661.84
2022-10-16T19:40:08.891Z,101674.56
2022-10-16T19:42:32.544Z,101680.09
2022-10-16T19:44:56.068Z,101685.97
2022-10-16T19:47:22.245Z,101686.94
2022-10-16T19:49:49.711Z,101691.72
2022-10-16T19:52:13.295Z,101688.03
2022-10-16T19:54:39.026Z,101693.22
2022-10-16T19:57:02.759Z,101690.53
2022-10-16T19:59:26.323Z,101705.94
2022-10-16T20:01:50.239Z,101702.41
2022-10-16T20:04:14.480Z,101702.47
2022-10-16T20:06:39.654Z,101696.63
2022-10-16T20:09:03.223Z,101698.72
2022-10-16T20:11:30.193Z,101704.84
2022-10-16T20:13:54.194Z,101704.09
2022-10-16T20:16:19.993Z,101714.66
2022-10-16T20:18:44.122Z,101711.47
2022-10-16T20:21:12.072Z,101727.53
2022-10-16T20:23:37.599Z,101725.81
2022-10-16T20:26:04.140Z,101728.50
2022-10-16T20:28:28.074Z,101729.38
2022-10-16T20:30:52.402Z,101730.56
2022-10-16T20:33:16.543Z,101733.03
2022-10-16T20:35:44.895Z,101733.69
2022-10-16T20:38:08.627Z,101733.28
2022-10-16T20:40:36.320Z,101730.69
2022-10-16T20:42:59.853Z,101733.41
2022-10-16T20:45:23.492Z,101738.03
2022-10-16T20:47:47.433Z,101742.59
2022-10-16T20:50:12.162Z,101738.91
2022-10-16T20:52:36.219Z,101743.22
2022-10-16T20:54:59.867Z,101735.13
2022-10-16T20:57:25.027Z,101740.50
2022-10-16T20:59:55.213Z,101746.13
2022-10-16T21:02:18.841Z,101745.78
2022-10-16T21:04:42.502Z,101750.06
2022-10-16T21:07:06.055Z,101743.38
2022-10-16T21:09:29.680Z,101740.78
2022-10-16T21:11:53.363Z,101751.03
2022-10-16T21:14:18.349Z,101760.88
2022-10-16T21:16:41.929Z,101751.59
2022-10-16T21:19:05.876Z,101751.34
2022-10-16T21:21:32.740Z,101749.84
2022-10-16T21:23:57.964Z,101760.88
2022-10-16T21:26:26.062Z,101760.88
2022-10-16T21:28:49.697Z,101756.44
2022-10-16T21:31:18.930Z,101761.97
2022-10-16T21:33:42.702Z,101766.38
2022-10-16T21:36:15.481Z,101771.53
2022-10-16T21:38:39.145Z,101768.81
2022-10-16T21:41:02.698Z,101783.94
2022-10-16T21:43:26.294Z,101783.06
2022-10-16T21:45:49.791Z,101791.28
2022-10-16T21:48:14.808Z,101799.38
2022-10-16T21:50:38.335Z,101808.31
2022-10-16T21:53:01.942Z,101807.94
2022-10-16T21:55:25.446Z,101812.97
2022-10-16T21:57:49.055Z,101811.97
2022-10-16T22:00:13.842Z,101811.00
2022-10-16T22:02:37.718Z,101813.06
2022-10-16T22:05:02.842Z,101808.78
2022-10-16T22:07:26.718Z,101813.31
2022-10-16T22:09:50.396Z,101817.63
2022-10-16T22:12:19.553Z,101805.88
2022-10-16T22:14:43.052Z,101803.72
2022-10-16T22:17:06.675Z,101798.31
2022-10-16T22:19:30.204Z,101792.22
2022-10-16T22:21:57.287Z,101793.28
2022-10-16T22:24:20.939Z,101800.84
2022-10-16T22:26:44.978Z,101797.97
2022-10-16T22:29:09.639Z,101781.13
2022-10-16T22:31:33.573Z,101785.78
2022-10-16T22:33:58.331Z,101789.09
2022-10-16T22:36:21.947Z,101788.59
2022-10-16T22:38:46.850Z,101793.34
2022-10-16T22:41:12.728Z,101801.44
2022-10-16T22:43:38.195Z,101803.03
2022-10-16T22:46:04.743Z,101800.69
2022-10-16T22:48:28.235Z,101801.00
2022-10-16T22:50:51.806Z,101803.81
2022-10-16T22:53:15.363Z,101809.22
2022-10-16T22:55:40.314Z,101803.19
2022-10-16T22:58:03.883Z,101800.59
2022-10-16T23:00:27.965Z,101812.13
2022-10-16T23:02:51.550Z,101824.63
2022-10-16T23:05:15.379Z,101829.34
2022-10-16T23:07:39.391Z,101831.81
2022-10-16T23:10:03.066Z,101824.59
2022-10-16T23:12:28.424Z,101818.13
2022-10-16T23:14:52.639Z,101814.22
2022-10-16T23:17:16.138Z,101805.03
2022-10-16T23:19:39.734Z,101801.28
2022-10-16T23:22:03.418Z,101806.19
2022-10-16T23:24:27.071Z,101806.06
2022-10-16T23:26:50.571Z,101799.50
2022-10-16T23:29:15.539Z,101797.19
2022-10-16T23:31:39.132Z,101801.50
2022-10-16T23:34:02.731Z,101811.34
2022-10-16T23:36:26.514Z,101815.53
2022-10-16T23:38:51.720Z,101821.44
2022-10-16T23:41:15.991Z,101836.78
2022-10-16T23:43:39.870Z,101834.16
2022-10-16T23:46:07.490Z,101828.16
2022-10-16T23:48:31.727Z,101830.78
2022-10-16T23:50:55.248Z,101828.94
2022-10-16T23:53:18.908Z,101825.06
2022-10-16T23:55:42.422Z,101827.63
2022-10-16T23:58:06.186Z,101831.47
